createdAt,value
2023-02-05T00:00:29.508Z,78.61
2023-02-05T00:01:52.370Z,79.23
2023-02-05T00:03:14.279Z,78.85
2023-02-05T00:04:37.321Z,78.81
2023-02-05T00:05:59.523Z,78.56
2023-02-05T00:07:24.118Z,78.88
2023-02-05T00:08:45.963Z,78.63
2023-02-05T00:10:09.132Z,78.98
2023-02-05T00:11:32.589Z,79.11
2023-02-05T00:12:55.877Z,79.47
2023-02-05T00:14:17.645Z,79.51
2023-02-05T00:15:43.129Z,79.52
2023-02-05T00:17:05.016Z,80.06
2023-02-05T00:18:27.809Z,79.14
2023-02-05T00:19:50.815Z,80.00
2023-02-05T00:21:14.381Z,79.41
2023-02-05T00:22:37.626Z,80.03
2023-02-05T00:24:00.487Z,79.84
2023-02-05T00:25:22.295Z,80.16
2023-02-05T00:26:45.194Z,79.74
2023-02-05T00:28:08.386Z,79.71
2023-02-05T00:29:31.627Z,80.61
2023-02-05T00:30:54.644Z,80.22
2023-02-05T00:32:17.573Z,80.68
2023-02-05T00:33:39.552Z,80.09
2023-02-05T00:35:03.254Z,80.51
2023-02-05T00:36:26.133Z,80.05
2023-02-05T00:37:50.394Z,80.69
2023-02-05T00:39:15.033Z,80.43
2023-02-05T00:40:37.855Z,80.16
2023-02-05T00:41:59.979Z,80.46
2023-02-05T00:43:22.944Z,80.88
2023-02-05T00:44:45.758Z,80.80
2023-02-05T00:46:12.210Z,81.10
2023-02-05T00:47:34.305Z,80.38
2023-02-05T00:48:57.229Z,80.35
2023-02-05T00:50:21.148Z,80.35
2023-02-05T00:51:43.009Z,80.05
2023-02-05T00:53:07.807Z,80.13
2023-02-05T00:54:31.046Z,80.25
2023-02-05T00:55:53.250Z,80.50
2023-02-05T00:57:16.892Z,80.05
2023-02-05T00:58:39.703Z,80.33
2023-02-05T01:00:02.725Z,80.22
2023-02-05T01:01:26.020Z,80.55
2023-02-05T01:02:50.053Z,80.52
2023-02-05T01:04:12.937Z,80.38
2023-02-05T01:05:37.708Z,80.86
2023-02-05T01:06:59.749Z,80.36
2023-02-05T01:08:24.075Z,80.62
2023-02-05T01:09:47.255Z,80.81
2023-02-05T01:11:11.307Z,80.20
2023-02-05T01:12:34.722Z,80.54
2023-02-05T01:13:57.008Z,80.76
2023-02-05T01:15:20.592Z,80.39
2023-02-05T01:16:42.678Z,80.60
2023-02-05T01:18:05.894Z,80.49
2023-02-05T01:19:28.034Z,80.51
2023-02-05T01:20:50.967Z,80.32
2023-02-05T01:22:13.052Z,80.82
2023-02-05T01:23:37.233Z,80.28
2023-02-05T01:27:03.926Z,80.50
2023-02-05T01:28:26.222Z,80.26
2023-02-05T01:29:50.202Z,80.12
2023-02-05T01:31:13.317Z,80.21
2023-02-05T01:32:35.683Z,79.63
2023-02-05T01:33:58.511Z,80.17
2023-02-05T01:35:21.369Z,79.94
2023-02-05T01:36:43.345Z,80.24
2023-02-05T01:38:06.081Z,79.78
2023-02-05T01:39:40.129Z,80.05
2023-02-05T01:41:02.045Z,79.95
2023-02-05T01:42:27.728Z,80.00
2023-02-05T01:44:10.466Z,79.74
2023-02-05T01:45:50.946Z,78.98
2023-02-05T01:47:13.906Z,79.38
2023-02-05T01:48:39.307Z,79.51
2023-02-05T01:50:02.402Z,79.36
2023-02-05T01:51:25.974Z,79.27
2023-02-05T01:52:47.964Z,79.19
2023-02-05T01:54:11.067Z,79.17
2023-02-05T01:55:36.239Z,79.10
2023-02-05T01:57:14.002Z,78.90
2023-02-05T01:58:38.418Z,79.27
2023-02-05T02:00:01.408Z,79.26
2023-02-05T02:01:24.534Z,79.66
2023-02-05T02:02:47.502Z,79.30
2023-02-05T02:04:11.386Z,79.44
2023-02-05T02:05:33.932Z,78.88
2023-02-05T02:06:57.124Z,78.69
2023-02-05T02:08:19.069Z,78.44
2023-02-05T02:09:43.424Z,78.46
2023-02-05T02:11:08.664Z,78.14
2023-02-05T02:12:35.245Z,78.58
2023-02-05T02:14:00.862Z,78.44
2023-02-05T02:15:24.488Z,78.96
2023-02-05T02:16:48.071Z,78.61
2023-02-05T02:18:28.495Z,78.87
2023-02-05T02:19:35.074Z,79.38
2023-02-05T02:20:38.279Z,79.27
2023-02-05T02:21:57.825Z,78.57
2023-02-05T02:23:09.757Z,79.07
2023-02-05T02:24:38.118Z,78.60
2023-02-05T02:26:12.880Z,78.40
2023-02-05T02:27:33.902Z,78.69
2023-02-05T02:28:42.198Z,79.00
2023-02-05T02:29:48.803Z,78.48
2023-02-05T02:30:59.453Z,78.40
2023-02-05T02:32:11.850Z,78.63
2023-02-05T02:33:19.021Z,78.24
2023-02-05T02:34:33.102Z,78.83
2023-02-05T02:35:43.098Z,78.32
2023-02-05T02:36:49.919Z,78.63
2023-02-05T02:37:58.637Z,78.50
2023-02-05T02:39:05.418Z,78.06
2023-02-05T02:40:12.478Z,78.92
2023-02-05T02:41:18.699Z,77.81
2023-02-05T02:42:25.552Z,78.41
2023-02-05T02:43:31.015Z,78.70
2023-02-05T02:44:40.425Z,78.70
2023-02-05T02:45:46.564Z,79.85
2023-02-05T02:46:55.454Z,80.14
2023-02-05T02:47:59.379Z,80.44
2023-02-05T02:49:06.405Z,80.56
2023-02-05T02:50:12.245Z,80.93
2023-02-05T02:51:17.197Z,80.71
2023-02-05T02:52:21.067Z,81.04
2023-02-05T02:53:27.363Z,81.16
2023-02-05T02:54:29.527Z,80.84
2023-02-05T02:55:37.004Z,81.36
2023-02-05T02:56:40.467Z,81.76
2023-02-05T02:57:44.949Z,81.41
2023-02-05T02:58:49.881Z,81.48
2023-02-05T02:59:58.308Z,81.50
2023-02-05T03:01:01.942Z,81.23
2023-02-05T03:02:07.302Z,81.54
2023-02-05T03:03:10.903Z,81.80
2023-02-05T03:04:19.803Z,81.57
2023-02-05T03:05:22.701Z,81.66
2023-02-05T03:06:27.343Z,81.74
2023-02-05T03:07:32.316Z,81.40
2023-02-05T03:08:39.761Z,81.72
2023-02-05T03:09:46.043Z,81.53
2023-02-05T03:10:52.142Z,81.33
2023-02-05T03:11:54.491Z,80.91
2023-02-05T03:12:59.865Z,81.59
2023-02-05T03:14:03.302Z,81.93
2023-02-05T03:15:12.524Z,81.89
2023-02-05T03:16:15.890Z,82.27
2023-02-05T03:17:19.872Z,82.09
2023-02-05T03:18:24.611Z,82.05
2023-02-05T03:19:27.951Z,82.25
2023-02-05T03:20:33.508Z,82.35
2023-02-05T03:21:41.688Z,82.39
2023-02-05T03:22:43.620Z,82.47
2023-02-05T03:23:46.901Z,81.51
2023-02-05T03:24:49.978Z,81.41
2023-02-05T03:25:53.138Z,81.98
2023-02-05T03:26:59.627Z,82.07
2023-02-05T03:28:03.068Z,82.51
2023-02-05T03:29:10.170Z,82.64
2023-02-05T03:30:17.460Z,82.44
2023-02-05T03:31:20.819Z,82.33
2023-02-05T03:32:33.298Z,82.29
2023-02-05T03:33:42.016Z,82.39
2023-02-05T03:34:53.341Z,82.53
2023-02-05T03:35:59.938Z,82.38
2023-02-05T03:37:11.727Z,82.75
2023-02-05T03:38:39.536Z,83.02
2023-02-05T03:39:50.937Z,82.91
2023-02-05T03:40:55.828Z,83.03
2023-02-05T03:42:09.755Z,83.05
2023-02-05T03:43:19.683Z,82.86
2023-02-05T03:44:47.174Z,82.75
2023-02-05T03:45:56.633Z,82.31
2023-02-05T03:47:02.671Z,82.54
2023-02-05T03:48:16.279Z,82.49
2023-02-05T03:49:21.372Z,82.10
2023-02-05T03:50:29.363Z,81.73
2023-02-05T03:51:38.077Z,81.48
2023-02-05T03:52:47.813Z,81.59
2023-02-05T03:53:58.358Z,81.72
2023-02-05T03:55:04.782Z,81.37
2023-02-05T03:56:11.137Z,81.10
2023-02-05T03:57:17.630Z,80.73
2023-02-05T03:58:25.274Z,81.28
2023-02-05T03:59:27.989Z,81.27
2023-02-05T04:00:31.617Z,81.41
2023-02-05T04:01:36.836Z,80.79
2023-02-05T04:02:39.850Z,81.39
2023-02-05T04:03:42.441Z,81.19
2023-02-05T04:04:46.563Z,80.88
2023-02-05T04:05:49.508Z,81.43
2023-02-05T04:06:54.413Z,81.24
2023-02-05T04:07:57.948Z,81.06
2023-02-05T04:09:06.366Z,81.46
2023-02-05T04:10:09.855Z,80.74
2023-02-05T04:11:14.130Z,81.46
2023-02-05T04:12:18.745Z,80.57
2023-02-05T04:13:22.820Z,80.60
2023-02-05T04:14:24.962Z,80.41
2023-02-05T04:15:28.185Z,80.00
2023-02-05T04:16:32.649Z,79.80
2023-02-05T04:17:38.607Z,81.07
2023-02-05T04:18:41.643Z,81.34
2023-02-05T04:19:43.782Z,81.51
2023-02-05T04:20:49.006Z,81.52
2023-02-05T04:21:54.401Z,81.01
2023-02-05T04:22:57.661Z,81.26
2023-02-05T04:24:00.734Z,80.68
2023-02-05T04:25:04.274Z,80.41
2023-02-05T04:26:06.389Z,80.35
2023-02-05T04:27:15.662Z,80.20
2023-02-05T04:28:17.789Z,80.47
2023-02-05T04:29:21.386Z,80.53
2023-02-05T04:30:26.085Z,79.75
2023-02-05T04:31:29.136Z,79.46
2023-02-05T04:32:31.985Z,80.42
2023-02-05T04:33:36.512Z,80.60
2023-02-05T04:34:38.465Z,79.57
2023-02-05T04:35:43.886Z,80.63
2023-02-05T04:36:48.485Z,80.61
2023-02-05T04:37:51.345Z,80.58
2023-02-05T04:38:54.614Z,80.87
2023-02-05T04:39:57.766Z,80.84
2023-02-05T04:41:00.642Z,81.10
2023-02-05T04:42:02.746Z,79.97
2023-02-05T04:43:06.020Z,80.75
2023-02-05T04:44:08.227Z,80.10
2023-02-05T04:45:13.307Z,80.29
2023-02-05T04:46:16.771Z,80.00
2023-02-05T04:47:18.807Z,79.74
2023-02-05T04:48:22.283Z,79.85
2023-02-05T04:49:25.703Z,80.57
2023-02-05T04:50:28.642Z,79.50
2023-02-05T04:51:30.784Z,80.47
2023-02-05T04:52:33.651Z,80.24
2023-02-05T04:53:35.624Z,79.42
2023-02-05T04:54:57.363Z,79.93
2023-02-05T04:56:05.527Z,80.45
2023-02-05T04:57:08.422Z,79.39
2023-02-05T04:58:10.443Z,79.53
2023-02-05T04:59:31.803Z,80.20
2023-02-05T05:00:33.845Z,79.63
2023-02-05T05:01:36.984Z,79.77
2023-02-05T05:02:38.942Z,79.37
2023-02-05T05:03:42.320Z,78.90
2023-02-05T05:04:45.607Z,78.67
2023-02-05T05:05:48.683Z,78.68
2023-02-05T05:06:51.181Z,79.59
2023-02-05T05:07:54.202Z,79.78
2023-02-05T05:08:56.313Z,79.67
2023-02-05T05:09:59.732Z,79.26
2023-02-05T05:11:06.478Z,79.27
2023-02-05T05:12:09.542Z,79.63
2023-02-05T05:13:11.542Z,79.88
2023-02-05T05:14:14.521Z,79.22
2023-02-05T05:15:16.689Z,79.70
2023-02-05T05:16:20.218Z,78.83
2023-02-05T05:17:22.202Z,78.94
2023-02-05T05:18:25.250Z,79.95
2023-02-05T05:19:27.302Z,79.64
2023-02-05T05:20:31.642Z,79.61
2023-02-05T05:21:34.062Z,77.86
2023-02-05T05:22:37.562Z,78.96
2023-02-05T05:23:39.544Z,79.31
2023-02-05T05:24:42.784Z,78.87
2023-02-05T05:25:46.361Z,79.83
2023-02-05T05:26:49.440Z,79.25
2023-02-05T05:27:51.455Z,79.90
2023-02-05T05:28:55.161Z,78.61
2023-02-05T05:29:57.100Z,79.68
2023-02-05T05:31:00.122Z,78.74
2023-02-05T05:32:02.384Z,79.01
2023-02-05T05:33:05.582Z,79.43
2023-02-05T05:34:07.699Z,79.08
2023-02-05T05:35:10.870Z,79.68
2023-02-05T05:36:14.373Z,79.46
2023-02-05T05:37:17.441Z,79.14
2023-02-05T05:38:20.006Z,78.84
2023-02-05T05:39:45.918Z,79.10
2023-02-05T05:41:06.200Z,79.35
2023-02-05T05:42:29.165Z,79.24
2023-02-05T05:43:50.284Z,79.34
2023-02-05T05:44:53.086Z,79.00
2023-02-05T05:45:56.731Z,78.67
2023-02-05T05:46:58.745Z,78.58
2023-02-05T05:48:02.318Z,77.83
2023-02-05T05:49:04.552Z,78.11
2023-02-05T05:50:08.280Z,78.01
2023-02-05T05:51:10.480Z,77.82
2023-02-05T05:52:15.129Z,78.55
2023-02-05T05:53:17.222Z,78.91
2023-02-05T05:54:20.277Z,78.59
2023-02-05T05:55:22.363Z,78.35
2023-02-05T05:56:25.404Z,78.68
2023-02-05T05:57:27.654Z,79.28
2023-02-05T05:58:30.594Z,79.80
2023-02-05T05:59:32.667Z,79.48
2023-02-05T06:00:35.734Z,79.30
2023-02-05T06:01:37.778Z,79.06
2023-02-05T06:02:43.898Z,79.35
2023-02-05T06:03:46.337Z,79.05
2023-02-05T06:04:49.353Z,78.61
2023-02-05T06:05:51.551Z,79.48
2023-02-05T06:06:59.293Z,79.49
2023-02-05T06:08:02.861Z,78.86
2023-02-05T06:09:06.131Z,78.70
2023-02-05T06:10:08.820Z,78.78
2023-02-05T06:11:12.033Z,79.32
2023-02-05T06:12:14.048Z,79.01
2023-02-05T06:13:17.349Z,79.04
2023-02-05T06:14:19.429Z,79.44
2023-02-05T06:15:23.209Z,78.78
2023-02-05T06:16:25.238Z,78.58
2023-02-05T06:17:28.273Z,78.37
2023-02-05T06:18:30.799Z,78.59
2023-02-05T06:19:33.950Z,78.68
2023-02-05T06:20:35.969Z,78.97
2023-02-05T06:21:39.010Z,79.14
2023-02-05T06:22:41.770Z,79.95
2023-02-05T06:23:46.104Z,79.78
2023-02-05T06:24:48.171Z,79.06
2023-02-05T06:25:51.746Z,79.28
2023-02-05T06:26:53.745Z,79.20
2023-02-05T06:27:56.883Z,79.69
2023-02-05T06:29:03.362Z,80.05
2023-02-05T06:30:07.110Z,80.01
2023-02-05T06:31:09.218Z,79.75
2023-02-05T06:32:12.636Z,80.24
2023-02-05T06:33:14.660Z,80.25
2023-02-05T06:34:17.571Z,80.39
2023-02-05T06:35:19.636Z,79.33
2023-02-05T06:36:22.626Z,79.72
2023-02-05T06:37:34.122Z,79.83
2023-02-05T06:38:37.467Z,81.10
2023-02-05T06:39:41.246Z,80.35
2023-02-05T06:40:44.286Z,80.45
2023-02-05T06:41:46.527Z,80.91
2023-02-05T06:42:49.522Z,81.26
2023-02-05T06:43:51.542Z,81.33
2023-02-05T06:44:55.105Z,80.15
2023-02-05T06:45:57.648Z,80.52
2023-02-05T06:47:01.008Z,80.78
2023-02-05T06:48:03.226Z,80.72
2023-02-05T06:49:06.220Z,81.17
2023-02-05T06:50:08.884Z,80.36
2023-02-05T06:51:13.552Z,80.40
2023-02-05T06:52:15.486Z,80.66
2023-02-05T06:53:18.467Z,82.28
2023-02-05T06:54:20.624Z,81.64
2023-02-05T06:55:24.986Z,82.77
2023-02-05T06:56:27.423Z,82.44
2023-02-05T06:57:31.867Z,82.35
2023-02-05T06:58:33.827Z,81.49
2023-02-05T06:59:36.728Z,81.37
2023-02-05T07:00:38.801Z,81.50
2023-02-05T07:01:41.761Z,81.10
2023-02-05T07:02:43.802Z,80.42
2023-02-05T07:03:48.460Z,80.54
2023-02-05T07:04:50.421Z,80.43
2023-02-05T07:05:53.266Z,80.36
2023-02-05T07:06:55.645Z,80.41
2023-02-05T07:07:59.797Z,79.92
2023-02-05T07:09:01.849Z,80.86
2023-02-05T07:10:05.405Z,80.74
2023-02-05T07:11:08.715Z,81.07
2023-02-05T07:12:11.638Z,80.38
2023-02-05T07:13:13.830Z,80.70
2023-02-05T07:14:16.866Z,81.58
2023-02-05T07:15:18.908Z,81.70
2023-02-05T07:16:22.050Z,81.77
2023-02-05T07:17:24.714Z,82.46
2023-02-05T07:18:27.608Z,82.04
2023-02-05T07:19:29.607Z,82.27
2023-02-05T07:20:32.629Z,82.51
2023-02-05T07:21:34.697Z,82.60
2023-02-05T07:22:37.745Z,82.47
2023-02-05T07:23:39.766Z,81.80
2023-02-05T07:24:42.823Z,82.75
2023-02-05T07:25:45.023Z,83.31
2023-02-05T07:26:49.444Z,83.38
2023-02-05T07:27:51.820Z,82.67
2023-02-05T07:28:55.345Z,82.37
2023-02-05T07:29:57.227Z,82.45
2023-02-05T07:31:04.301Z,82.41
2023-02-05T07:32:07.399Z,82.87
2023-02-05T07:33:10.772Z,82.71
2023-02-05T07:34:12.716Z,83.30
2023-02-05T07:35:16.115Z,82.44
2023-02-05T07:36:18.764Z,82.53
2023-02-05T07:37:24.013Z,82.48
2023-02-05T07:38:26.191Z,80.74
2023-02-05T07:39:31.164Z,80.43
2023-02-05T07:40:33.142Z,80.56
2023-02-05T07:41:36.269Z,80.43
2023-02-05T07:42:41.436Z,80.62
2023-02-05T07:43:44.981Z,80.84
2023-02-05T07:44:48.505Z,80.83
2023-02-05T07:45:56.218Z,80.87
2023-02-05T07:46:59.032Z,81.22
2023-02-05T07:48:00.998Z,80.70
2023-02-05T07:49:03.917Z,80.49
2023-02-05T07:50:07.325Z,81.42
2023-02-05T07:51:15.984Z,80.78
2023-02-05T07:52:18.856Z,81.16
2023-02-05T07:53:21.157Z,81.75
2023-02-05T07:54:24.677Z,81.87
2023-02-05T07:55:26.615Z,82.12
2023-02-05T07:56:29.574Z,81.68
2023-02-05T07:57:31.606Z,82.76
2023-02-05T07:58:35.941Z,82.77
2023-02-05T07:59:37.915Z,82.67
2023-02-05T08:00:41.145Z,82.49
2023-02-05T08:01:43.073Z,82.66
2023-02-05T08:02:46.115Z,82.40
2023-02-05T08:03:48.094Z,82.55
2023-02-05T08:04:51.188Z,82.57
2023-02-05T08:05:53.112Z,82.71
2023-02-05T08:06:56.448Z,81.93
2023-02-05T08:07:58.454Z,80.90
2023-02-05T08:09:01.412Z,81.64
2023-02-05T08:10:04.457Z,82.27
2023-02-05T08:11:08.178Z,82.71
2023-02-05T08:12:10.048Z,82.88
2023-02-05T08:13:13.411Z,81.97
2023-02-05T08:14:16.721Z,82.15
2023-02-05T08:15:19.881Z,81.74
2023-02-05T08:16:22.262Z,82.13
2023-02-05T08:17:25.262Z,81.59
2023-02-05T08:18:27.146Z,81.53
2023-02-05T08:19:30.068Z,81.04
2023-02-05T08:20:32.297Z,79.54
2023-02-05T08:21:35.210Z,80.05
2023-02-05T08:22:38.665Z,79.54
2023-02-05T08:23:41.511Z,79.89
2023-02-05T08:24:44.370Z,80.26
2023-02-05T08:25:46.454Z,79.87
2023-02-05T08:26:49.406Z,79.88
2023-02-05T08:27:51.271Z,80.85
2023-02-05T08:28:54.269Z,81.17
2023-02-05T08:29:57.580Z,80.93
2023-02-05T08:31:00.600Z,81.01
2023-02-05T08:32:02.561Z,79.31
2023-02-05T08:33:05.489Z,79.52
2023-02-05T08:34:07.460Z,79.75
2023-02-05T08:35:10.330Z,79.95
2023-02-05T08:36:13.324Z,79.48
2023-02-05T08:37:16.112Z,79.01
2023-02-05T08:38:18.188Z,78.36
2023-02-05T08:39:20.972Z,78.51
2023-02-05T08:40:22.848Z,78.47
2023-02-05T08:41:26.215Z,78.70
2023-02-05T08:42:28.124Z,78.63
2023-02-05T08:43:31.013Z,79.19
2023-02-05T08:44:34.113Z,78.76
2023-02-05T08:45:39.075Z,78.47
2023-02-05T08:46:49.718Z,79.21
2023-02-05T08:47:52.988Z,79.75
2023-02-05T08:48:55.828Z,79.77
2023-02-05T08:49:58.732Z,80.29
2023-02-05T08:51:00.744Z,80.52
2023-02-05T08:52:03.827Z,79.89
2023-02-05T08:53:07.140Z,78.35
2023-02-05T08:54:13.114Z,79.15
2023-02-05T08:55:18.230Z,78.74
2023-02-05T08:56:21.165Z,79.42
2023-02-05T08:57:27.177Z,78.34
2023-02-05T08:58:30.549Z,77.86
2023-02-05T08:59:33.336Z,77.99
2023-02-05T09:00:39.025Z,78.25
2023-02-05T09:01:45.718Z,77.89
2023-02-05T09:02:48.902Z,77.60
2023-02-05T09:03:51.247Z,77.87
2023-02-05T09:05:01.847Z,77.81
2023-02-05T09:06:12.541Z,77.27
2023-02-05T09:07:14.784Z,78.05
2023-02-05T09:08:17.995Z,77.86
2023-02-05T09:09:20.039Z,78.01
2023-02-05T09:10:23.004Z,77.88
2023-02-05T09:11:26.682Z,77.23
2023-02-05T09:12:29.579Z,77.07
2023-02-05T09:13:32.519Z,77.46
2023-02-05T09:14:36.373Z,76.84
2023-02-05T09:15:43.644Z,76.48
2023-02-05T09:16:46.597Z,76.83
2023-02-05T09:17:48.559Z,76.16
2023-02-05T09:18:52.268Z,76.05
2023-02-05T09:19:54.387Z,76.02
2023-02-05T09:20:57.346Z,76.33
2023-02-05T09:22:00.283Z,76.21
2023-02-05T09:23:02.318Z,76.19
2023-02-05T09:24:05.866Z,76.12
2023-02-05T09:25:08.252Z,75.76
2023-02-05T09:26:11.260Z,76.18
2023-02-05T09:27:14.961Z,75.91
2023-02-05T09:28:17.927Z,76.47
2023-02-05T09:29:21.521Z,76.27
2023-02-05T09:30:23.561Z,75.86
2023-02-05T09:31:27.921Z,76.52
2023-02-05T09:32:31.109Z,75.75
2023-02-05T09:33:32.987Z,75.63
2023-02-05T09:34:35.892Z,74.70
2023-02-05T09:35:57.564Z,74.70
2023-02-05T09:37:00.389Z,74.49
2023-02-05T09:38:03.389Z,75.38
2023-02-05T09:39:15.886Z,75.94
2023-02-05T09:40:28.188Z,75.11
2023-02-05T09:41:33.784Z,74.71
2023-02-05T09:42:39.819Z,74.75
2023-02-05T09:43:49.535Z,75.45
2023-02-05T09:45:00.053Z,74.82
2023-02-05T09:46:04.567Z,73.91
2023-02-05T09:47:13.152Z,73.71
2023-02-05T09:48:34.387Z,73.40
2023-02-05T09:49:42.075Z,72.69
2023-02-05T09:50:43.924Z,72.95
2023-02-05T09:51:48.826Z,73.17
2023-02-05T09:52:51.116Z,73.14
2023-02-05T09:53:57.746Z,73.99
2023-02-05T09:55:02.174Z,73.42
2023-02-05T09:56:08.253Z,72.89
2023-02-05T09:57:12.758Z,73.87
2023-02-05T09:58:18.600Z,73.65
2023-02-05T09:59:23.939Z,74.07
2023-02-05T10:00:27.836Z,72.99
2023-02-05T10:01:37.988Z,73.21
2023-02-05T10:02:50.466Z,74.27
2023-02-05T10:03:56.400Z,74.09
2023-02-05T10:04:59.308Z,74.51
2023-02-05T10:06:13.221Z,74.36
2023-02-05T10:07:22.690Z,73.59
2023-02-05T10:08:29.715Z,73.77
2023-02-05T10:09:45.040Z,74.52
2023-02-05T10:10:50.083Z,73.48
2023-02-05T10:11:59.737Z,74.08
2023-02-05T10:13:27.134Z,73.55
2023-02-05T10:14:43.335Z,74.25
2023-02-05T10:15:58.191Z,73.95
2023-02-05T10:17:21.201Z,74.52
2023-02-05T10:18:29.576Z,73.66
2023-02-05T10:19:56.006Z,74.46
2023-02-05T10:21:02.939Z,74.10
2023-02-05T10:22:11.839Z,74.54
2023-02-05T10:23:17.003Z,75.18
2023-02-05T10:24:37.420Z,74.87
2023-02-05T10:25:47.820Z,74.94
2023-02-05T10:26:52.543Z,75.01
2023-02-05T10:27:58.736Z,75.31
2023-02-05T10:29:27.542Z,74.92
2023-02-05T10:30:32.114Z,74.56
2023-02-05T10:31:43.921Z,75.19
2023-02-05T10:32:56.238Z,75.42
2023-02-05T10:34:21.076Z,75.68
2023-02-05T10:35:25.899Z,75.35
2023-02-05T10:36:28.758Z,75.58
2023-02-05T10:37:40.403Z,75.92
2023-02-05T10:38:44.928Z,75.89
2023-02-05T10:39:49.498Z,76.02
2023-02-05T10:40:54.470Z,76.27
2023-02-05T10:42:01.320Z,76.09
2023-02-05T10:43:11.157Z,76.31
2023-02-05T10:44:18.850Z,76.37
2023-02-05T10:45:22.909Z,76.49
2023-02-05T10:46:31.420Z,76.29
2023-02-05T10:47:46.108Z,75.72
2023-02-05T10:48:52.382Z,75.48
2023-02-05T10:49:59.074Z,75.35
2023-02-05T10:51:03.765Z,75.19
2023-02-05T10:52:06.603Z,72.32
2023-02-05T10:53:08.527Z,72.86
2023-02-05T10:54:20.100Z,73.18
2023-02-05T10:55:22.186Z,72.40
2023-02-05T10:56:25.051Z,72.46
2023-02-05T10:57:31.735Z,72.51
2023-02-05T10:58:40.805Z,72.80
2023-02-05T10:59:51.012Z,72.28
2023-02-05T11:00:53.356Z,72.19
2023-02-05T11:01:57.903Z,71.99
2023-02-05T11:02:59.990Z,72.07
2023-02-05T11:04:05.498Z,72.08
2023-02-05T11:05:18.196Z,72.91
2023-02-05T11:06:20.458Z,72.74
2023-02-05T11:07:27.336Z,72.52
2023-02-05T11:08:35.715Z,73.54
2023-02-05T11:09:38.626Z,72.82
2023-02-05T11:10:41.672Z,72.92
2023-02-05T11:11:44.552Z,73.81
2023-02-05T11:12:50.066Z,73.74
2023-02-05T11:13:56.984Z,73.85
2023-02-05T11:15:01.582Z,73.76
2023-02-05T11:16:05.831Z,73.80
2023-02-05T11:17:21.697Z,74.02
2023-02-05T11:18:25.148Z,73.72
2023-02-05T11:19:29.408Z,73.97
2023-02-05T11:20:35.815Z,73.45
2023-02-05T11:21:54.903Z,72.73
2023-02-05T11:23:09.475Z,72.56
2023-02-05T11:24:22.797Z,72.68
2023-02-05T11:25:26.480Z,72.40
2023-02-05T11:26:29.509Z,73.04
2023-02-05T11:27:32.239Z,72.65
2023-02-05T11:28:36.727Z,72.97
2023-02-05T11:29:38.664Z,72.13
2023-02-05T11:30:57.480Z,72.37
2023-02-05T11:32:00.696Z,72.08
2023-02-05T11:33:19.577Z,72.15
2023-02-05T11:34:22.480Z,72.37
2023-02-05T11:35:27.120Z,72.32
2023-02-05T11:36:31.366Z,72.29
2023-02-05T11:37:34.496Z,72.46
2023-02-05T11:38:44.931Z,72.99
2023-02-05T11:39:53.799Z,73.41
2023-02-05T11:40:58.898Z,73.08
2023-02-05T11:42:09.798Z,73.62
2023-02-05T11:43:27.349Z,73.75
2023-02-05T11:44:32.766Z,73.26
2023-02-05T11:45:37.657Z,71.41
2023-02-05T11:46:47.490Z,72.45
2023-02-05T11:47:49.639Z,73.03
2023-02-05T11:48:58.540Z,72.68
2023-02-05T11:50:00.715Z,73.15
2023-02-05T11:51:05.242Z,72.90
2023-02-05T11:52:12.093Z,72.97
2023-02-05T11:53:17.277Z,72.62
2023-02-05T11:54:24.454Z,72.37
2023-02-05T11:55:29.688Z,72.60
2023-02-05T11:56:32.522Z,71.83
2023-02-05T11:57:37.820Z,72.37
2023-02-05T11:58:40.748Z,72.72
2023-02-05T11:59:44.587Z,72.08
2023-02-05T12:00:52.406Z,72.63
2023-02-05T12:01:55.284Z,73.26
2023-02-05T12:03:05.638Z,73.83
2023-02-05T12:04:18.367Z,73.37
2023-02-05T12:05:23.320Z,73.68
2023-02-05T12:06:29.424Z,73.68
2023-02-05T12:07:37.606Z,73.34
2023-02-05T12:08:45.108Z,71.76
2023-02-05T12:09:48.396Z,71.44
2023-02-05T12:10:57.645Z,70.92
2023-02-05T12:12:07.276Z,71.03
2023-02-05T12:13:19.692Z,70.82
2023-02-05T12:14:29.031Z,70.99
2023-02-05T12:15:37.527Z,71.44
2023-02-05T12:16:47.603Z,70.94
2023-02-05T12:17:55.563Z,71.63
2023-02-05T12:19:03.067Z,71.58
2023-02-05T12:20:13.308Z,71.88
2023-02-05T12:21:23.924Z,72.11
2023-02-05T12:22:36.739Z,72.06
2023-02-05T12:23:58.834Z,72.42
2023-02-05T12:25:15.751Z,72.40
2023-02-05T12:26:27.953Z,72.86
2023-02-05T12:27:47.663Z,72.63
2023-02-05T12:28:57.228Z,72.88
2023-02-05T12:30:32.267Z,72.73
2023-02-05T12:31:46.660Z,72.87
2023-02-05T12:32:53.834Z,73.06
2023-02-05T12:34:12.586Z,72.92
2023-02-05T12:35:24.275Z,73.13
2023-02-05T12:36:39.207Z,73.44
2023-02-05T12:37:49.875Z,73.29
2023-02-05T12:39:03.231Z,73.20
2023-02-05T12:40:15.097Z,73.13
2023-02-05T12:41:24.911Z,72.05
2023-02-05T12:42:33.870Z,72.18
2023-02-05T12:43:38.642Z,70.87
2023-02-05T12:44:52.044Z,71.15
2023-02-05T12:46:03.755Z,71.19
2023-02-05T12:47:14.985Z,71.30
2023-02-05T12:48:29.674Z,71.21
2023-02-05T12:49:48.222Z,70.71
2023-02-05T12:50:58.498Z,71.01
2023-02-05T12:52:12.159Z,70.68
2023-02-05T12:53:29.328Z,71.12
2023-02-05T12:54:44.580Z,71.73
2023-02-05T12:55:55.395Z,71.50
2023-02-05T12:57:00.976Z,71.97
2023-02-05T12:58:05.316Z,71.19
2023-02-05T12:59:14.078Z,71.06
2023-02-05T13:00:19.617Z,70.89
2023-02-05T13:01:25.002Z,70.19
2023-02-05T13:02:32.057Z,70.38
2023-02-05T13:03:37.780Z,70.19
2023-02-05T13:04:43.032Z,69.88
2023-02-05T13:05:47.356Z,69.28
2023-02-05T13:06:54.163Z,69.22
2023-02-05T13:08:01.716Z,68.85
2023-02-05T13:09:07.456Z,68.47
2023-02-05T13:10:17.918Z,68.58
2023-02-05T13:11:27.916Z,68.37
2023-02-05T13:12:33.249Z,67.73
2023-02-05T13:13:40.574Z,67.37
2023-02-05T13:14:45.385Z,66.68
2023-02-05T13:15:56.268Z,66.46
2023-02-05T13:17:02.296Z,65.98
2023-02-05T13:18:08.124Z,65.33
2023-02-05T13:19:18.143Z,65.32
2023-02-05T13:20:46.729Z,64.91
2023-02-05T13:22:07.472Z,65.14
2023-02-05T13:23:24.526Z,65.68
2023-02-05T13:24:49.261Z,66.05
2023-02-05T13:26:09.625Z,65.19
2023-02-05T13:27:38.262Z,66.17
2023-02-05T13:28:43.526Z,65.79
2023-02-05T13:29:51.998Z,66.98
2023-02-05T13:30:55.978Z,66.81
2023-02-05T13:32:10.644Z,66.81
2023-02-05T13:33:18.604Z,65.75
2023-02-05T13:34:21.695Z,65.98
2023-02-05T13:35:24.390Z,65.41
2023-02-05T13:37:12.814Z,65.65
2023-02-05T13:38:25.288Z,65.48
2023-02-05T13:39:47.338Z,64.80
2023-02-05T13:41:09.852Z,65.39
2023-02-05T13:42:26.521Z,65.77
2023-02-05T13:43:37.224Z,65.88
2023-02-05T13:45:11.790Z,65.28
2023-02-05T13:46:33.326Z,65.14
2023-02-05T13:48:00.466Z,65.77
2023-02-05T13:49:13.246Z,65.54
2023-02-05T13:51:12.765Z,65.60
2023-02-05T13:52:40.254Z,65.43
2023-02-05T13:53:51.753Z,65.48
2023-02-05T13:55:08.507Z,65.75
2023-02-05T13:56:19.987Z,65.65
2023-02-05T13:57:51.774Z,65.70
2023-02-05T13:58:55.855Z,65.74
2023-02-05T13:59:58.130Z,65.33
2023-02-05T14:01:03.735Z,65.71
2023-02-05T14:02:26.211Z,65.73
2023-02-05T14:03:36.813Z,65.81
2023-02-05T14:04:41.635Z,65.95
2023-02-05T14:05:43.610Z,65.55
2023-02-05T14:06:52.400Z,65.55
2023-02-05T14:07:57.912Z,65.46
2023-02-05T14:09:04.523Z,65.23
2023-02-05T14:10:19.420Z,64.36
2023-02-05T14:11:23.955Z,64.35
2023-02-05T14:12:28.032Z,64.66
2023-02-05T14:13:33.786Z,63.93
2023-02-05T14:14:37.161Z,64.17
2023-02-05T14:15:41.084Z,64.71
2023-02-05T14:16:46.381Z,64.65
2023-02-05T14:17:54.451Z,64.92
2023-02-05T14:19:12.458Z,64.85
2023-02-05T14:20:34.318Z,64.80
2023-02-05T14:22:01.384Z,64.99
2023-02-05T14:23:06.449Z,65.10
2023-02-05T14:24:27.815Z,65.54
2023-02-05T14:26:06.174Z,65.61
2023-02-05T14:27:50.027Z,65.30
2023-02-05T14:28:52.841Z,65.43
2023-02-05T14:30:39.640Z,65.93
2023-02-05T14:31:49.547Z,66.26
2023-02-05T14:32:59.659Z,66.45
2023-02-05T14:34:44.129Z,66.33
2023-02-05T14:35:49.085Z,66.24
2023-02-05T14:36:53.097Z,65.98
2023-02-05T14:37:58.336Z,66.14
2023-02-05T14:39:02.402Z,66.55
2023-02-05T14:40:27.594Z,66.80
2023-02-05T14:41:31.374Z,66.93
2023-02-05T14:42:35.353Z,67.16
2023-02-05T14:43:40.213Z,67.18
2023-02-05T14:44:43.429Z,67.02
2023-02-05T14:45:47.669Z,66.77
2023-02-05T14:47:10.184Z,66.69
2023-02-05T14:48:20.373Z,66.46
2023-02-05T14:49:25.692Z,67.00
2023-02-05T14:50:29.135Z,67.21
2023-02-05T14:51:37.382Z,67.49